^^
Saratoga-Weather Station Historical Data
Daily Summary for April 17, 2020 Units:  Both    English   Metric
Daily Weekly Monthly Yearly Custom
  High: Low: Average:
Temperature: 48.9 °F /  9.4 °C 47.5 °F /  8.6 °C 48 °F /  8.9 °C
Dew Point: 46.4 °F /  8 °C 45 °F /  7.2 °C 45.7 °F /  7.6 °C
Humidity: 92% 91% 91%
Wind Speed: 6.9mph /  11.1km/h - 1.2mph /  2km/h
Wind Gust: 11mph /  17.7km/h - -
Wind- - WSW
Pressure: 30.3 in /  1027.1 hPa 30.3 in /  1024.4 hPa -
Precipitation: 0 in /  0.0 mm    
Historical Graphs
 
 
Tabular Data for April 17, 2020
Time Temperature Dew Point Pressure Wind Wind Speed Wind Gust Humidity Rainfall Rate (Hourly) solar
00:04 48 °F /  8.9 °C 45.9 °F /  7.7 °C 30.3in /  1024.4hPa West 0.9mph /  1.4km/h 2mph /  3.2km/h 92% 0in /  0.0mm 0 W/m2
00:09 48 °F /  8.9 °C 45.9 °F /  7.7 °C 30.3in /  1024.7hPa West 0.9mph /  1.4km/h 4mph /  6.4km/h 92% 0in /  0.0mm 0 W/m2
00:14 48 °F /  8.9 °C 45.9 °F /  7.7 °C 30.3in /  1024.7hPa WNW 0.9mph /  1.4km/h 3mph /  4.8km/h 92% 0in /  0.0mm 0 W/m2
00:19 48 °F /  8.9 °C 45.9 °F /  7.7 °C 30.3in /  1024.7hPa WNW 2.9mph /  4.7km/h 4mph /  6.4km/h 92% 0in /  0.0mm 0 W/m2
00:24 48.2 °F /  9 °C 46 °F /  7.8 °C 30.3in /  1024.7hPa WNW 2.9mph /  4.7km/h 3mph /  4.8km/h 92% 0in /  0.0mm 0 W/m2
00:29 48.2 °F /  9 °C 46 °F /  7.8 °C 30.3in /  1024.7hPa WNW 0.9mph /  1.4km/h 3mph /  4.8km/h 92% 0in /  0.0mm 0 W/m2
00:34 48.4 °F /  9.1 °C 46.2 °F /  7.9 °C 30.3in /  1024.7hPa Calm   4mph /  6.4km/h 92% 0in /  0.0mm 0 W/m2
00:39 48.4 °F /  9.1 °C 46.2 °F /  7.9 °C 30.3in /  1024.7hPa WNW 6.9mph /  11.1km/h 8mph /  12.9km/h 92% 0in /  0.0mm 0 W/m2
00:44 48.4 °F /  9.1 °C 46.2 °F /  7.9 °C 30.3in /  1024.7hPa WSW 4.9mph /  7.9km/h 6mph /  9.7km/h 92% 0in /  0.0mm 0 W/m2
00:49 48.4 °F /  9.1 °C 46.2 °F /  7.9 °C 30.3in /  1024.7hPa West 2mph /  3.2km/h 2mph /  3.2km/h 92% 0in /  0.0mm 0 W/m2
00:54 48.4 °F /  9.1 °C 46.2 °F /  7.9 °C 30.3in /  1025.1hPa West 2mph /  3.2km/h 2mph /  3.2km/h 92% 0in /  0.0mm 0 W/m2
00:59 48.6 °F /  9.2 °C 46.4 °F /  8 °C 30.3in /  1024.7hPa Calm   2mph /  3.2km/h 92% 0in /  0.0mm 0 W/m2
01:04 48.6 °F /  9.2 °C 46.4 °F /  8 °C 30.3in /  1024.7hPa NW 0.9mph /  1.4km/h 2mph /  3.2km/h 92% 0in /  0.0mm 0 W/m2
01:09 48.6 °F /  9.2 °C 46.4 °F /  8 °C 30.3in /  1024.7hPa Calm   3mph /  4.8km/h 92% 0in /  0.0mm 0 W/m2
01:14 48.6 °F /  9.2 °C 46.4 °F /  8 °C 30.3in /  1024.7hPa WNW 2.9mph /  4.7km/h 4mph /  6.4km/h 92% 0in /  0.0mm 0 W/m2
01:19 48.6 °F /  9.2 °C 46.4 °F /  8 °C 30.3in /  1024.7hPa Calm   2mph /  3.2km/h 92% 0in /  0.0mm 0 W/m2
01:24 48.6 °F /  9.2 °C 46.4 °F /  8 °C 30.3in /  1025.1hPa North 0.9mph /  1.4km/h 2mph /  3.2km/h 92% 0in /  0.0mm 0 W/m2
01:29 48.6 °F /  9.2 °C 46.4 °F /  8 °C 30.3in /  1025.1hPa West 2mph /  3.2km/h 6mph /  9.7km/h 92% 0in /  0.0mm 0 W/m2
01:34 48.6 °F /  9.2 °C 46 °F /  7.8 °C 30.3in /  1025.1hPa NNW 0.9mph /  1.4km/h 3mph /  4.8km/h 91% 0in /  0.0mm 0 W/m2
01:39 48.6 °F /  9.2 °C 46 °F /  7.8 °C 30.3in /  1025.1hPa WSW 2mph /  3.2km/h 3mph /  4.8km/h 91% 0in /  0.0mm 0 W/m2
01:44 48.6 °F /  9.2 °C 46 °F /  7.8 °C 30.3in /  1025.1hPa NNE 2.9mph /  4.7km/h 4mph /  6.4km/h 91% 0in /  0.0mm 0 W/m2
01:49 48.6 °F /  9.2 °C 46 °F /  7.8 °C 30.3in /  1025.1hPa West 0.9mph /  1.4km/h 2mph /  3.2km/h 91% 0in /  0.0mm 0 W/m2
01:54 48.6 °F /  9.2 °C 46 °F /  7.8 °C 30.3in /  1025.1hPa West 0.9mph /  1.4km/h 6mph /  9.7km/h 91% 0in /  0.0mm 0 W/m2
01:59 48.6 °F /  9.2 °C 46 °F /  7.8 °C 30.3in /  1024.7hPa Calm   2mph /  3.2km/h 91% 0in /  0.0mm 0 W/m2
02:04 48.6 °F /  9.2 °C 46 °F /  7.8 °C 30.3in /  1024.7hPa SE 0.9mph /  1.4km/h 5mph /  8km/h 91% 0in /  0.0mm 0 W/m2
02:09 48.6 °F /  9.2 °C 46 °F /  7.8 °C 30.3in /  1024.7hPa Calm   2mph /  3.2km/h 91% 0in /  0.0mm 0 W/m2
02:14 48.6 °F /  9.2 °C 46 °F /  7.8 °C 30.3in /  1024.7hPa East 0.9mph /  1.4km/h 3mph /  4.8km/h 91% 0in /  0.0mm 0 W/m2
02:19 48.6 °F /  9.2 °C 46 °F /  7.8 °C 30.3in /  1025.1hPa Calm   3mph /  4.8km/h 91% 0in /  0.0mm 0 W/m2
02:24 48.6 °F /  9.2 °C 46 °F /  7.8 °C 30.3in /  1024.7hPa South 0.9mph /  1.4km/h 5mph /  8km/h 91% 0in /  0.0mm 0 W/m2
02:29 48.6 °F /  9.2 °C 46 °F /  7.8 °C 30.3in /  1025.1hPa NW 2mph /  3.2km/h 2mph /  3.2km/h 91% 0in /  0.0mm 0 W/m2
02:34 48.6 °F /  9.2 °C 46 °F /  7.8 °C 30.3in /  1024.7hPa WNW 0.9mph /  1.4km/h 2mph /  3.2km/h 91% 0in /  0.0mm 0 W/m2
02:39 48.6 °F /  9.2 °C 46 °F /  7.8 °C 30.3in /  1025.1hPa WSW 2.9mph /  4.7km/h 6mph /  9.7km/h 91% 0in /  0.0mm 0 W/m2
02:44 48.6 °F /  9.2 °C 46 °F /  7.8 °C 30.3in /  1025.1hPa Calm   1mph /  1.6km/h 91% 0in /  0.0mm 0 W/m2
02:49 48.6 °F /  9.2 °C 46 °F /  7.8 °C 30.3in /  1025.1hPa NE 0.9mph /  1.4km/h 6mph /  9.7km/h 91% 0in /  0.0mm 0 W/m2
02:54 48.4 °F /  9.1 °C 45.9 °F /  7.7 °C 30.3in /  1024.7hPa NNW 0.9mph /  1.4km/h 3mph /  4.8km/h 91% 0in /  0.0mm 0 W/m2
02:59 48.4 °F /  9.1 °C 45.9 °F /  7.7 °C 30.3in /  1024.7hPa West 0.9mph /  1.4km/h 6mph /  9.7km/h 91% 0in /  0.0mm 0 W/m2
03:04 48.4 °F /  9.1 °C 45.9 °F /  7.7 °C 30.3in /  1025.1hPa Calm   2mph /  3.2km/h 91% 0in /  0.0mm 0 W/m2
03:09 48.2 °F /  9 °C 45.7 °F /  7.6 °C 30.3in /  1025.1hPa NW 0.9mph /  1.4km/h 2mph /  3.2km/h 91% 0in /  0.0mm 0 W/m2
03:14 48 °F /  8.9 °C 45.5 °F /  7.5 °C 30.3in /  1024.7hPa WNW 0.9mph /  1.4km/h 1mph /  1.6km/h 91% 0in /  0.0mm 0 W/m2
03:19 48 °F /  8.9 °C 45.5 °F /  7.5 °C 30.3in /  1024.7hPa Calm   1mph /  1.6km/h 91% 0in /  0.0mm 0 W/m2
03:24 47.8 °F /  8.8 °C 45.3 °F /  7.4 °C 30.3in /  1024.7hPa Calm   4mph /  6.4km/h 91% 0in /  0.0mm 0 W/m2
03:29 47.8 °F /  8.8 °C 45.7 °F /  7.6 °C 30.3in /  1024.7hPa ESE 2mph /  3.2km/h 2mph /  3.2km/h 92% 0in /  0.0mm 0 W/m2
03:34 47.8 °F /  8.8 °C 45.7 °F /  7.6 °C 30.3in /  1024.7hPa NNE 0.9mph /  1.4km/h 3mph /  4.8km/h 92% 0in /  0.0mm 0 W/m2
03:39 47.8 °F /  8.8 °C 45.7 °F /  7.6 °C 30.3in /  1024.7hPa Calm   3mph /  4.8km/h 92% 0in /  0.0mm 0 W/m2
03:44 47.8 °F /  8.8 °C 45.7 °F /  7.6 °C 30.3in /  1024.7hPa Calm   1mph /  1.6km/h 92% 0in /  0.0mm 0 W/m2
03:49 47.7 °F /  8.7 °C 45.5 °F /  7.5 °C 30.3in /  1024.7hPa ENE 2mph /  3.2km/h 3mph /  4.8km/h 92% 0in /  0.0mm 0 W/m2
03:54 47.7 °F /  8.7 °C 45.5 °F /  7.5 °C 30.3in /  1024.7hPa Calm     92% 0in /  0.0mm 0 W/m2
03:59 47.7 °F /  8.7 °C 45.5 °F /  7.5 °C 30.3in /  1024.7hPa WSW 2.9mph /  4.7km/h 6mph /  9.7km/h 92% 0in /  0.0mm 0 W/m2
04:04 47.7 °F /  8.7 °C 45.5 °F /  7.5 °C 30.3in /  1024.7hPa Calm   2mph /  3.2km/h 92% 0in /  0.0mm 0 W/m2
04:09 47.7 °F /  8.7 °C 45.5 °F /  7.5 °C 30.3in /  1024.7hPa NNW 0.9mph /  1.4km/h 6mph /  9.7km/h 92% 0in /  0.0mm 0 W/m2
04:14 47.7 °F /  8.7 °C 45.5 °F /  7.5 °C 30.3in /  1024.7hPa WSW 2mph /  3.2km/h 2mph /  3.2km/h 92% 0in /  0.0mm 0 W/m2
04:19 47.7 °F /  8.7 °C 45.5 °F /  7.5 °C 30.3in /  1024.7hPa North 2mph /  3.2km/h 4mph /  6.4km/h 92% 0in /  0.0mm 0 W/m2
04:24 47.7 °F /  8.7 °C 45.5 °F /  7.5 °C 30.3in /  1024.7hPa SW 2mph /  3.2km/h 3mph /  4.8km/h 92% 0in /  0.0mm 0 W/m2
04:29 47.7 °F /  8.7 °C 45.5 °F /  7.5 °C 30.3in /  1024.7hPa NW 2mph /  3.2km/h 4mph /  6.4km/h 92% 0in /  0.0mm 0 W/m2
04:34 47.8 °F /  8.8 °C 45.7 °F /  7.6 °C 30.3in /  1024.7hPa Calm   2mph /  3.2km/h 92% 0in /  0.0mm 0 W/m2
04:39 47.8 °F /  8.8 °C 45.7 °F /  7.6 °C 30.3in /  1024.7hPa Calm   2mph /  3.2km/h 92% 0in /  0.0mm 0 W/m2
04:44 47.8 °F /  8.8 °C 45.3 °F /  7.4 °C 30.3in /  1024.7hPa WNW 2mph /  3.2km/h 2mph /  3.2km/h 91% 0in /  0.0mm 0 W/m2
04:49 47.8 °F /  8.8 °C 45.3 °F /  7.4 °C 30.3in /  1024.7hPa Calm   2mph /  3.2km/h 91% 0in /  0.0mm 0 W/m2
04:54 47.8 °F /  8.8 °C 45.3 °F /  7.4 °C 30.3in /  1025.1hPa SSW 0.9mph /  1.4km/h 3mph /  4.8km/h 91% 0in /  0.0mm 0 W/m2
04:59 47.8 °F /  8.8 °C 45.3 °F /  7.4 °C 30.3in /  1025.1hPa SSE 0.9mph /  1.4km/h 1mph /  1.6km/h 91% 0in /  0.0mm 0 W/m2
05:04 47.8 °F /  8.8 °C 45.3 °F /  7.4 °C 30.3in /  1025.1hPa Calm   1mph /  1.6km/h 91% 0in /  0.0mm 0 W/m2
05:09 47.8 °F /  8.8 °C 45.3 °F /  7.4 °C 30.3in /  1025.1hPa Calm   2mph /  3.2km/h 91% 0in /  0.0mm 0 W/m2
05:14 47.8 °F /  8.8 °C 45.3 °F /  7.4 °C 30.3in /  1025.1hPa Calm   1mph /  1.6km/h 91% 0in /  0.0mm 0 W/m2
05:19 47.8 °F /  8.8 °C 45.3 °F /  7.4 °C 30.3in /  1025.1hPa WNW 4mph /  6.4km/h 4mph /  6.4km/h 91% 0in /  0.0mm 0 W/m2
05:24 47.7 °F /  8.7 °C 45.1 °F /  7.3 °C 30.3in /  1025.1hPa WSW 2mph /  3.2km/h 2mph /  3.2km/h 91% 0in /  0.0mm 0 W/m2
05:29 47.7 °F /  8.7 °C 45.1 °F /  7.3 °C 30.3in /  1025.1hPa WSW 2mph /  3.2km/h 4mph /  6.4km/h 91% 0in /  0.0mm 0 W/m2
05:34 47.7 °F /  8.7 °C 45.1 °F /  7.3 °C 30.3in /  1025.1hPa Calm   6mph /  9.7km/h 91% 0in /  0.0mm 0 W/m2
05:39 47.7 °F /  8.7 °C 45.1 °F /  7.3 °C 30.3in /  1025.1hPa WNW 0.9mph /  1.4km/h 3mph /  4.8km/h 91% 0in /  0.0mm 0 W/m2
05:44 47.7 °F /  8.7 °C 45.1 °F /  7.3 °C 30.3in /  1025.1hPa NW 0.9mph /  1.4km/h 3mph /  4.8km/h 91% 0in /  0.0mm 0 W/m2
05:49 47.7 °F /  8.7 °C 45.1 °F /  7.3 °C 30.3in /  1025.1hPa ESE 2mph /  3.2km/h 3mph /  4.8km/h 91% 0in /  0.0mm 0 W/m2
05:54 47.7 °F /  8.7 °C 45.1 °F /  7.3 °C 30.3in /  1025.1hPa WSW 0.9mph /  1.4km/h 3mph /  4.8km/h 91% 0in /  0.0mm 0 W/m2
05:59 47.7 °F /  8.7 °C 45.1 °F /  7.3 °C 30.3in /  1025.1hPa Calm   7mph /  11.3km/h 91% 0in /  0.0mm 0 W/m2
06:04 47.5 °F /  8.6 °C 45 °F /  7.2 °C 30.3in /  1025.4hPa Calm   6mph /  9.7km/h 91% 0in /  0.0mm 0 W/m2
06:09 47.5 °F /  8.6 °C 45 °F /  7.2 °C 30.3in /  1025.4hPa WNW 2.9mph /  4.7km/h 3mph /  4.8km/h 91% 0in /  0.0mm 0 W/m2
06:14 47.5 °F /  8.6 °C 45.3 °F /  7.4 °C 30.3in /  1025.4hPa Calm   3mph /  4.8km/h 92% 0in /  0.0mm 0 W/m2
06:19 47.5 °F /  8.6 °C 45.3 °F /  7.4 °C 30.3in /  1025.1hPa NW 2mph /  3.2km/h 3mph /  4.8km/h 92% 0in /  0.0mm 0 W/m2
06:24 47.5 °F /  8.6 °C 45.3 °F /  7.4 °C 30.3in /  1025.4hPa ESE 2mph /  3.2km/h 4mph /  6.4km/h 92% 0in /  0.0mm 0 W/m2
06:29 47.5 °F /  8.6 °C 45 °F /  7.2 °C 30.3in /  1025.4hPa Calm   3mph /  4.8km/h 91% 0in /  0.0mm 0 W/m2
06:34 47.5 °F /  8.6 °C 45 °F /  7.2 °C 30.3in /  1025.4hPa Calm   2mph /  3.2km/h 91% 0in /  0.0mm 0 W/m2
06:39 47.5 °F /  8.6 °C 45.3 °F /  7.4 °C 30.3in /  1025.4hPa SSE 2mph /  3.2km/h 4mph /  6.4km/h 92% 0in /  0.0mm 0 W/m2
06:44 47.7 °F /  8.7 °C 45.5 °F /  7.5 °C 30.3in /  1025.4hPa Calm   2mph /  3.2km/h 92% 0in /  0.0mm 0 W/m2
06:49 47.7 °F /  8.7 °C 45.5 °F /  7.5 °C 30.3in /  1025.4hPa Calm   2mph /  3.2km/h 92% 0in /  0.0mm 0 W/m2
06:54 47.7 °F /  8.7 °C 45.1 °F /  7.3 °C 30.3in /  1025.4hPa West 2mph /  3.2km/h 2mph /  3.2km/h 91% 0in /  0.0mm 0 W/m2
06:59 47.8 °F /  8.8 °C 45.3 °F /  7.4 °C 30.3in /  1025.4hPa West 0.9mph /  1.4km/h 4mph /  6.4km/h 91% 0in /  0.0mm 0 W/m2
07:04 47.8 °F /  8.8 °C 45.3 °F /  7.4 °C 30.3in /  1025.7hPa SW 0.9mph /  1.4km/h 3mph /  4.8km/h 91% 0in /  0.0mm 0 W/m2
07:09 47.8 °F /  8.8 °C 45.3 °F /  7.4 °C 30.3in /  1025.7hPa Calm   4mph /  6.4km/h 91% 0in /  0.0mm 0 W/m2
07:14 47.8 °F /  8.8 °C 45.3 °F /  7.4 °C 30.3in /  1025.7hPa SW 2mph /  3.2km/h 3mph /  4.8km/h 91% 0in /  0.0mm 0 W/m2
07:19 47.8 °F /  8.8 °C 45.3 °F /  7.4 °C 30.3in /  1025.7hPa NE 0.9mph /  1.4km/h 2mph /  3.2km/h 91% 0in /  0.0mm 0 W/m2
07:24 47.8 °F /  8.8 °C 45.3 °F /  7.4 °C 30.3in /  1025.7hPa West 2.9mph /  4.7km/h 3mph /  4.8km/h 91% 0in /  0.0mm 0 W/m2
07:29 47.8 °F /  8.8 °C 45.3 °F /  7.4 °C 30.3in /  1025.7hPa NW 2mph /  3.2km/h 3mph /  4.8km/h 91% 0in /  0.0mm 0 W/m2
07:34 47.8 °F /  8.8 °C 45.3 °F /  7.4 °C 30.3in /  1025.7hPa SSW 2mph /  3.2km/h 3mph /  4.8km/h 91% 0in /  0.0mm 0 W/m2
07:39 47.8 °F /  8.8 °C 45.3 °F /  7.4 °C 30.3in /  1025.7hPa West 2mph /  3.2km/h 11mph /  17.7km/h 91% 0in /  0.0mm 0 W/m2
07:44 47.8 °F /  8.8 °C 45.3 °F /  7.4 °C 30.3in /  1025.7hPa SW 2.9mph /  4.7km/h 3mph /  4.8km/h 91% 0in /  0.0mm 0 W/m2
07:49 47.8 °F /  8.8 °C 45.3 °F /  7.4 °C 30.3in /  1026.1hPa Calm   11mph /  17.7km/h 91% 0in /  0.0mm 0 W/m2
07:54 47.8 °F /  8.8 °C 45.3 °F /  7.4 °C 30.3in /  1026.1hPa ENE 2mph /  3.2km/h 4mph /  6.4km/h 91% 0in /  0.0mm 0 W/m2
07:59 47.8 °F /  8.8 °C 45.3 °F /  7.4 °C 30.3in /  1026.1hPa North 2mph /  3.2km/h 4mph /  6.4km/h 91% 0in /  0.0mm 5 W/m2
08:04 47.8 °F /  8.8 °C 45.3 °F /  7.4 °C 30.3in /  1026.1hPa Calm   3mph /  4.8km/h 91% 0in /  0.0mm 7 W/m2
08:09 48 °F /  8.9 °C 45.5 °F /  7.5 °C 30.3in /  1026.4hPa WNW 0.9mph /  1.4km/h 4mph /  6.4km/h 91% 0in /  0.0mm 12 W/m2
08:14 48 °F /  8.9 °C 45.5 °F /  7.5 °C 30.3in /  1026.4hPa NW 2.9mph /  4.7km/h 5mph /  8km/h 91% 0in /  0.0mm 16 W/m2
08:19 48 °F /  8.9 °C 45.9 °F /  7.7 °C 30.3in /  1026.4hPa West 2.9mph /  4.7km/h 5mph /  8km/h 92% 0in /  0.0mm 21 W/m2
08:24 48.2 °F /  9 °C 46 °F /  7.8 °C 30.3in /  1026.8hPa NW 2.9mph /  4.7km/h 4mph /  6.4km/h 92% 0in /  0.0mm 21 W/m2
08:29 48.2 °F /  9 °C 45.7 °F /  7.6 °C 30.3in /  1026.8hPa NNW 0.9mph /  1.4km/h 3mph /  4.8km/h 91% 0in /  0.0mm 25 W/m2
08:34 48.4 °F /  9.1 °C 45.9 °F /  7.7 °C 30.3in /  1026.4hPa East 0.9mph /  1.4km/h 2mph /  3.2km/h 91% 0in /  0.0mm 30 W/m2
08:39 48.4 °F /  9.1 °C 45.9 °F /  7.7 °C 30.3in /  1026.8hPa Calm   2mph /  3.2km/h 91% 0in /  0.0mm 35 W/m2
08:44 48.4 °F /  9.1 °C 45.9 °F /  7.7 °C 30.3in /  1026.8hPa East 0.9mph /  1.4km/h 4mph /  6.4km/h 91% 0in /  0.0mm 39 W/m2
08:49 48.6 °F /  9.2 °C 46 °F /  7.8 °C 30.3in /  1026.8hPa East 0.9mph /  1.4km/h 4mph /  6.4km/h 91% 0in /  0.0mm 35 W/m2
08:54 48.6 °F /  9.2 °C 46 °F /  7.8 °C 30.3in /  1026.8hPa WNW 2.9mph /  4.7km/h 4mph /  6.4km/h 91% 0in /  0.0mm 44 W/m2
08:59 48.6 °F /  9.2 °C 46 °F /  7.8 °C 30.3in /  1027.1hPa NW 0.9mph /  1.4km/h 4mph /  6.4km/h 91% 0in /  0.0mm 46 W/m2
09:04 48.7 °F /  9.3 °C 46.2 °F /  7.9 °C 30.3in /  1026.8hPa WNW 0.9mph /  1.4km/h 2mph /  3.2km/h 91% 0in /  0.0mm 53 W/m2
09:09 48.7 °F /  9.3 °C 46.2 °F /  7.9 °C 30.3in /  1026.8hPa Calm   3mph /  4.8km/h 91% 0in /  0.0mm 56 W/m2
09:14 48.9 °F /  9.4 °C 46.4 °F /  8 °C 30.3in /  1027.1hPa West 2mph /  3.2km/h 2mph /  3.2km/h 91% 0in /  0.0mm 58 W/m2
09:19 48.9 °F /  9.4 °C 46.4 °F /  8 °C 30.3in /  1027.1hPa NW 2.9mph /  4.7km/h 3mph /  4.8km/h 91% 0in /  0.0mm 58 W/m2
09:24 48.9 °F /  9.4 °C 46.4 °F /  8 °C 30.3in /  1027.1hPa South 2mph /  3.2km/h 3mph /  4.8km/h 91% 0in /  0.0mm 65 W/m2
Juneau County Weather
Compliments of Weather Underground - 2 mb